Terminal Aerodrome Forecast
Issued by NWS Grand Forks, ND

Home | Current Version | Previous Version | Text Only | Print | Product List | Glossary Off
Versions: 1 2 3 4 5 6 7 8 9 10 11 12 13 14

000
FTUS43 KFGF 050500
TAFFAR
TAF
KFAR 050520Z 0506/0606 VRB05KT P6SM SCT250
     FM051300 14011KT P6SM SCT250
     FM051700 15014G22KT P6SM SCT120=

USA.gov is the U.S. government's official web portal to all federal, state and local government web resources and services.